Time;durP1;ratioP1;P1;durP2;ratioP2;P2;SDS_P1;SDS_P2;PMS_P1;PMS_P2;Temp;Humidity;BMP_temperature;BMP_pressure;BME280_temperature;BME280_humidity;BME280_pressure;Samples;Min_cycle;Max_cycle;Signal;HPM_P1;HPM_P2
2022/10/11 00:01:50;;;;;;;4.10;2.60;;;;;;;12.44;100.00;96807.16;5011514;28;20287;-81
2022/10/11 00:04:18;;;;;;;3.17;2.40;;;;;;;12.41;100.00;96807.63;5009275;28;20297;-82
2022/10/11 00:06:46;;;;;;;3.30;2.60;;;;;;;12.36;100.00;96804.75;5012344;28;20230;-81
2022/10/11 00:09:14;;;;;;;5.57;3.03;;;;;;;12.30;100.00;96803.00;5008296;28;20210;-81
2022/10/11 00:11:42;;;;;;;6.23;3.40;;;;;;;12.26;100.00;96812.63;5008616;28;20200;-81
2022/10/11 00:14:09;;;;;;;4.73;2.73;;;;;;;12.16;100.00;96788.81;5009363;28;20216;-81
2022/10/11 00:16:37;;;;;;;5.10;2.60;;;;;;;12.29;100.00;96798.63;5011370;28;20203;-82
2022/10/11 00:19:04;;;;;;;4.63;2.13;;;;;;;12.21;100.00;96790.81;5008254;28;20299;-81
2022/10/11 00:21:32;;;;;;;4.43;2.50;;;;;;;12.22;100.00;96787.06;5005759;28;20203;-81
2022/10/11 00:23:59;;;;;;;4.67;2.90;;;;;;;12.17;100.00;96793.16;5000186;28;20197;-81
2022/10/11 00:26:27;;;;;;;4.93;3.33;;;;;;;12.21;100.00;96801.66;5006937;28;20246;-82
2022/10/11 00:28:54;;;;;;;3.93;3.07;;;;;;;12.20;100.00;96798.13;5019231;28;20205;-81
2022/10/11 00:31:22;;;;;;;4.47;3.60;;;;;;;12.15;100.00;96787.16;5007030;28;20200;-81
2022/10/11 00:33:49;;;;;;;5.20;3.90;;;;;;;12.22;100.00;96795.19;5007864;28;20211;-81
2022/10/11 00:36:17;;;;;;;3.67;3.03;;;;;;;12.13;100.00;96789.28;5017106;28;20214;-81
2022/10/11 00:38:45;;;;;;;7.30;3.50;;;;;;;12.13;100.00;96795.50;5008013;28;20219;-81
2022/10/11 00:41:13;;;;;;;7.07;3.50;;;;;;;12.10;100.00;96798.66;5007508;28;20227;-81
2022/10/11 00:43:43;;;;;;;4.60;3.23;;;;;;;12.10;100.00;96795.13;5023175;28;20212;-81
2022/10/11 00:46:28;;;;;;;4.93;3.10;;;;;;;12.12;100.00;96796.56;5011146;28;20222;-81
2022/10/11 00:49:01;;;;;;;3.97;2.50;;;;;;;12.14;100.00;96790.94;5022135;28;20220;-81
2022/10/11 00:51:39;;;;;;;4.83;2.50;;;;;;;12.17;100.00;96789.63;5006963;28;20227;-82
2022/10/11 00:54:11;;;;;;;5.50;2.87;;;;;;;12.19;100.00;96792.94;5010488;28;20219;-81
2022/10/11 00:56:40;;;;;;;2.40;2.20;;;;;;;12.26;100.00;96791.78;5006085;28;20267;-81
2022/10/11 00:59:14;;;;;;;4.63;2.30;;;;;;;12.22;100.00;96785.19;5008097;28;20259;-81
2022/10/11 01:01:41;;;;;;;3.57;2.33;;;;;;;12.26;100.00;96785.53;5005574;28;20281;-81
2022/10/11 01:04:08;;;;;;;3.70;2.20;;;;;;;12.23;100.00;96791.44;5007427;28;20203;-81
2022/10/11 01:06:35;;;;;;;2.97;2.47;;;;;;;12.22;100.00;96787.06;5009914;28;20238;-81
2022/10/11 01:09:03;;;;;;;3.73;2.23;;;;;;;12.26;100.00;96789.06;5024417;28;20208;-81
2022/10/11 01:11:31;;;;;;;5.27;2.20;;;;;;;12.29;100.00;96787.78;5007459;28;20279;-82
2022/10/11 01:14:19;;;;;;;4.60;2.90;;;;;;;12.30;100.00;96778.63;5007592;28;20203;-81
2022/10/11 01:16:57;;;;;;;2.27;2.07;;;;;;;12.28;100.00;96776.13;5004098;28;20203;-81
2022/10/11 01:19:54;;;;;;;6.20;2.60;;;;;;;12.25;100.00;96783.91;5009613;28;20458;-81
2022/10/11 01:22:46;;;;;;;4.40;2.60;;;;;;;12.27;100.00;96771.78;5003431;28;20232;-81
2022/10/11 01:25:26;;;;;;;4.77;2.40;;;;;;;12.28;100.00;96769.91;5004025;28;20227;-81
2022/10/11 01:28:11;;;;;;;4.40;2.53;;;;;;;12.26;100.00;96761.16;5005627;28;20269;-81
2022/10/11 01:30:41;;;;;;;9.00;2.50;;;;;;;12.20;100.00;96757.50;5008320;28;20207;-81
2022/10/11 01:33:39;;;;;;;2.67;2.33;;;;;;;12.16;100.00;96760.91;5022057;28;20208;-82
2022/10/11 01:36:14;;;;;;;5.80;1.90;;;;;;;12.12;100.00;96758.66;5009148;28;20200;-81
2022/10/11 01:38:46;;;;;;;2.73;2.27;;;;;;;12.18;100.00;96759.63;4996942;28;20235;-81
2022/10/11 01:41:18;;;;;;;3.87;1.70;;;;;;;12.22;100.00;96752.69;5009393;28;20204;-81
2022/10/11 01:43:47;;;;;;;3.00;1.70;;;;;;;12.23;100.00;96748.94;5010643;28;20294;-81
2022/10/11 01:46:16;;;;;;;2.53;2.20;;;;;;;12.18;100.00;96734.41;5009313;28;20255;-81
2022/10/11 01:48:48;;;;;;;5.97;2.47;;;;;;;12.22;100.00;96739.16;5002882;28;20208;-81
2022/10/11 01:51:18;;;;;;;4.73;1.80;;;;;;;12.27;100.00;96738.47;5023941;28;20204;-81
2022/10/11 01:54:01;;;;;;;2.03;1.83;;;;;;;12.29;100.00;96742.59;5001266;28;20214;-82
2022/10/11 01:56:50;;;;;;;6.30;2.10;;;;;;;12.28;100.00;96734.69;5002826;28;20207;-81
2022/10/11 01:59:38;;;;;;;3.43;2.20;;;;;;;12.29;100.00;96739.06;5006168;28;20202;-81
2022/10/11 02:02:21;;;;;;;6.67;2.30;;;;;;;12.19;100.00;96734.19;5005893;28;20219;-82
2022/10/11 02:04:55;;;;;;;2.87;2.30;;;;;;;12.15;100.00;96726.78;5006274;28;20216;-81
2022/10/11 02:07:25;;;;;;;4.50;2.27;;;;;;;12.14;100.00;96725.97;5023711;28;20230;-81
2022/10/11 02:09:59;;;;;;;5.93;2.40;;;;;;;12.18;100.00;96729.00;5006579;28;20231;-80
2022/10/11 02:12:32;;;;;;;4.50;2.20;;;;;;;12.21;100.00;96736.69;5020385;28;20215;-81
2022/10/11 02:15:03;;;;;;;5.50;2.37;;;;;;;12.17;100.00;96730.88;5002292;28;20203;-81
2022/10/11 02:17:39;;;;;;;2.90;2.43;;;;;;;12.11;100.00;96721.00;5008629;28;20307;-81
2022/10/11 02:20:11;;;;;;;4.40;2.00;;;;;;;12.08;100.00;96714.16;5006934;28;20226;-81
2022/10/11 02:22:43;;;;;;;3.23;2.07;;;;;;;12.06;100.00;96718.16;5023385;28;20212;-82
2022/10/11 02:25:15;;;;;;;4.43;2.10;;;;;;;12.12;100.00;96722.66;5005430;28;20215;-81
2022/10/11 02:27:47;;;;;;;6.23;2.40;;;;;;;12.10;100.00;96713.91;5014969;28;20204;-81
2022/10/11 02:30:14;;;;;;;4.30;1.97;;;;;;;12.09;100.00;96707.69;4999606;28;20199;-81
2022/10/11 02:32:46;;;;;;;3.33;2.17;;;;;;;12.11;100.00;96712.88;5007326;28;20218;-81
2022/10/11 02:35:14;;;;;;;2.83;2.10;;;;;;;12.10;100.00;96708.50;5006948;28;20203;-82
2022/10/11 02:37:48;;;;;;;3.17;2.03;;;;;;;12.13;100.00;96721.59;5007284;28;20204;-81
2022/10/11 02:40:21;;;;;;;2.40;2.03;;;;;;;12.10;100.00;96701.22;5001336;28;20214;-81
2022/10/11 02:42:57;;;;;;;2.87;2.10;;;;;;;12.15;100.00;96707.84;5007438;28;20203;-81
2022/10/11 02:45:28;;;;;;;4.17;2.07;;;;;;;12.10;100.00;96708.50;5003924;28;20215;-81
2022/10/11 02:47:57;;;;;;;3.73;2.17;;;;;;;12.10;100.00;96709.34;5006013;28;20214;-81
2022/10/11 02:50:24;;;;;;;4.90;3.07;;;;;;;12.15;100.00;96715.97;4996500;28;20199;-82
2022/10/11 02:52:52;;;;;;;3.50;2.30;;;;;;;12.05;100.00;96701.09;5010005;28;20215;-81
2022/10/11 02:55:19;;;;;;;6.20;2.60;;;;;;;12.02;100.00;96704.25;5022785;28;20243;-81
2022/10/11 02:57:46;;;;;;;4.43;1.97;;;;;;;12.03;100.00;96707.78;5009631;28;20207;-82
2022/10/11 03:00:14;;;;;;;3.17;2.20;;;;;;;12.02;100.00;96711.53;5005507;28;20223;-81
2022/10/11 03:02:41;;;;;;;2.93;2.33;;;;;;;12.01;100.00;96715.31;5025618;28;20205;-81
2022/10/11 03:05:10;;;;;;;3.43;2.17;;;;;;;11.99;100.00;96699.28;5028767;28;20203;-81
2022/10/11 03:07:37;;;;;;;4.13;2.40;;;;;;;12.03;100.00;96719.44;5005866;28;20234;-81
2022/10/11 03:10:05;;;;;;;5.30;2.07;;;;;;;12.03;100.00;96716.72;5007925;28;20227;-81
2022/10/11 03:12:33;;;;;;;8.83;2.20;;;;;;;12.05;100.00;96728.16;5011180;28;20290;-81
2022/10/11 03:15:00;;;;;;;2.97;2.00;;;;;;;12.03;100.00;96724.03;5008145;28;20215;-81
2022/10/11 03:17:27;;;;;;;5.47;2.20;;;;;;;12.05;100.00;96721.91;5009686;28;20214;-81
2022/10/11 03:19:54;;;;;;;4.77;2.23;;;;;;;12.05;100.00;96724.63;5010857;28;20249;-81
2022/10/11 03:22:23;;;;;;;10.20;3.07;;;;;;;11.97;100.00;96723.06;5010111;28;20213;-81
2022/10/11 03:24:50;;;;;;;6.70;3.27;;;;;;;11.88;100.00;96726.31;5007815;28;20496;-81
2022/10/11 03:27:17;;;;;;;4.23;3.07;;;;;;;11.89;100.00;96738.81;5010804;28;20265;-81
2022/10/11 03:29:44;;;;;;;4.87;2.43;;;;;;;11.82;100.00;96728.09;5011135;28;20238;-81
2022/10/11 03:32:11;;;;;;;5.13;2.47;;;;;;;11.83;100.00;96724.28;5022455;28;20257;-81
2022/10/11 03:34:38;;;;;;;5.23;2.23;;;;;;;11.82;100.00;96728.09;5009409;28;20206;-81
2022/10/11 03:37:06;;;;;;;6.13;2.47;;;;;;;11.85;100.00;96734.91;5003804;28;20200;-81
2022/10/11 03:39:34;;;;;;;7.60;2.73;;;;;;;11.85;100.00;96735.72;5011069;28;20271;-81
2022/10/11 03:42:02;;;;;;;9.20;2.57;;;;;;;11.82;100.00;96733.50;5017142;28;20215;-81
2022/10/11 03:44:29;;;;;;;5.60;2.33;;;;;;;11.81;100.00;96734.53;5010405;28;20204;-81
2022/10/11 03:46:56;;;;;;;2.47;2.13;;;;;;;11.81;100.00;96737.25;5011098;28;20226;-81
2022/10/11 03:49:23;;;;;;;7.47;2.53;;;;;;;11.78;100.00;96736.88;5008084;28;20214;-81
2022/10/11 03:51:50;;;;;;;6.00;2.77;;;;;;;11.77;100.00;96732.50;5007317;28;20298;-81
2022/10/11 03:54:17;;;;;;;5.50;2.57;;;;;;;11.78;100.00;96731.47;5020921;28;20199;-81
2022/10/11 03:56:46;;;;;;;5.40;3.17;;;;;;;11.77;100.00;96735.22;5011090;28;20227;-81
2022/10/11 03:59:13;;;;;;;5.53;2.80;;;;;;;11.75;100.00;96741.66;5001991;28;20204;-81
2022/10/11 04:01:40;;;;;;;4.17;2.60;;;;;;;11.70;100.00;96732.56;5006930;28;20208;-81
2022/10/11 04:04:07;;;;;;;3.00;2.60;;;;;;;11.68;100.00;96742.78;5007608;28;20254;-81
2022/10/11 04:06:34;;;;;;;19.17;7.17;;;;;;;11.69;100.00;96744.44;5023050;28;20228;-81
2022/10/11 04:09:02;;;;;;;6.63;3.17;;;;;;;11.69;100.00;96739.03;5007916;28;20203;-81
2022/10/11 04:11:29;;;;;;;8.17;2.63;;;;;;;11.76;100.00;96742.50;5009870;28;20231;-81
2022/10/11 04:13:57;;;;;;;4.70;2.40;;;;;;;11.75;100.00;96743.56;5012085;28;20199;-81
2022/10/11 04:16:25;;;;;;;3.07;2.10;;;;;;;11.85;100.00;96743.00;5009406;28;20195;-81
2022/10/11 04:18:52;;;;;;;119.90;27.23;;;;;;;11.80;100.00;96745.59;5001352;28;20240;-81
2022/10/11 04:21:19;;;;;;;5.03;2.33;;;;;;;11.81;100.00;96736.41;5010254;28;20204;-81
2022/10/11 04:23:46;;;;;;;5.70;2.50;;;;;;;11.78;100.00;96742.28;5007209;28;20215;-81
2022/10/11 04:26:13;;;;;;;4.70;2.53;;;;;;;11.73;100.00;96735.66;5011392;28;20227;-81
2022/10/11 04:28:40;;;;;;;9.33;2.80;;;;;;;11.73;100.00;96729.41;5009229;28;20207;-81
2022/10/11 04:31:09;;;;;;;4.23;2.80;;;;;;;11.78;100.00;96745.81;5005777;28;20395;-81
2022/10/11 04:33:36;;;;;;;3.07;2.40;;;;;;;11.78;100.00;96735.00;5002932;28;20214;-80
2022/10/11 04:36:04;;;;;;;4.47;2.93;;;;;;;11.84;100.00;96744.88;5001803;28;20213;-80
2022/10/11 04:38:31;;;;;;;2.67;2.40;;;;;;;11.86;100.00;96745.50;5016199;28;20204;-81
2022/10/11 04:41:06;;;;;;;4.87;2.80;;;;;;;11.88;100.00;96746.09;5006126;28;20231;-81
2022/10/11 04:43:34;;;;;;;3.53;2.77;;;;;;;11.83;100.00;96735.13;5007246;28;20207;-81
2022/10/11 04:46:01;;;;;;;3.13;2.80;;;;;;;11.83;100.00;96735.13;5009581;28;20227;-80
2022/10/11 04:48:30;;;;;;;3.87;3.00;;;;;;;11.93;100.00;96746.22;5013252;28;20219;-80
2022/10/11 04:50:57;;;;;;;5.63;2.70;;;;;;;11.92;100.00;96738.34;5017160;28;20298;-80
2022/10/11 04:53:25;;;;;;;3.60;3.03;;;;;;;11.95;100.00;96746.81;5007023;28;20286;-80
2022/10/11 04:56:00;;;;;;;6.23;2.90;;;;;;;11.97;100.00;96752.03;5006238;28;20203;-80
2022/10/11 04:58:27;;;;;;;6.10;2.77;;;;;;;11.98;100.00;96751.78;5005200;28;20218;-80
2022/10/11 05:00:55;;;;;;;4.37;2.90;;;;;;;11.96;100.00;96750.38;5006253;28;20219;-80
2022/10/11 05:03:22;;;;;;;7.00;2.80;;;;;;;11.89;100.00;96739.63;5006943;28;20211;-80
2022/10/11 05:05:51;;;;;;;4.23;2.57;;;;;;;11.91;100.00;96747.53;5009158;28;20207;-81
2022/10/11 05:08:18;;;;;;;4.27;2.10;;;;;;;11.87;100.00;96751.72;5007176;28;20262;-80
2022/10/11 05:10:55;;;;;;;5.53;2.80;;;;;;;11.81;100.00;96742.66;5006082;28;20215;-81
2022/10/11 05:13:22;;;;;;;6.20;2.77;;;;;;;11.83;100.00;96740.53;5004344;28;20214;-80
2022/10/11 05:15:49;;;;;;;6.60;2.80;;;;;;;11.78;100.00;96745.81;5007932;28;20212;-81
2022/10/11 05:18:16;;;;;;;6.23;3.37;;;;;;;11.75;100.00;96744.38;5011790;28;20246;-81
2022/10/11 05:20:44;;;;;;;4.97;3.00;;;;;;;11.74;100.00;96742.72;5029363;28;20203;-80
2022/10/11 05:23:12;;;;;;;6.90;4.07;;;;;;;11.76;100.00;96745.19;5024368;28;20206;-80
2022/10/11 05:25:40;;;;;;;6.17;3.00;;;;;;;11.78;100.00;96750.41;5009570;28;20205;-81
2022/10/11 05:28:07;;;;;;;4.97;2.60;;;;;;;11.77;100.00;96741.44;5015821;28;20226;-81
2022/10/11 05:30:34;;;;;;;2.37;2.10;;;;;;;11.79;100.00;96743.94;5008049;28;20190;-81
2022/10/11 05:33:01;;;;;;;2.50;2.30;;;;;;;11.77;100.00;96741.44;5010467;28;20218;-81
2022/10/11 05:35:28;;;;;;;4.40;2.30;;;;;;;11.79;100.00;96744.75;5004293;28;20194;-81
2022/10/11 05:37:55;;;;;;;4.87;2.40;;;;;;;11.79;100.00;96744.75;5006420;28;20222;-81
2022/10/11 05:40:24;;;;;;;2.13;1.80;;;;;;;11.83;100.00;96742.41;5012085;28;20215;-82
2022/10/11 05:42:51;;;;;;;8.40;2.97;;;;;;;11.84;100.00;96744.88;5012580;28;20303;-81
2022/10/11 05:45:18;;;;;;;4.30;2.60;;;;;;;11.87;100.00;96743.63;5025823;28;20206;-82
2022/10/11 05:47:46;;;;;;;4.53;3.00;;;;;;;11.85;100.00;96751.97;5023051;28;20227;-81
2022/10/11 05:50:13;;;;;;;6.50;3.17;;;;;;;11.83;100.00;96755.94;5012610;28;20269;-81
2022/10/11 05:52:40;;;;;;;5.57;3.60;;;;;;;11.71;100.00;96734.22;5024369;28;20214;-81
2022/10/11 05:55:08;;;;;;;6.13;3.50;;;;;;;11.79;100.00;96743.94;5008878;28;20202;-81
2022/10/11 05:57:37;;;;;;;8.43;3.97;;;;;;;11.84;100.00;96761.13;5009466;28;20306;-81
2022/10/11 06:00:04;;;;;;;6.57;4.20;;;;;;;11.85;100.00;96746.53;5008224;28;20233;-81
2022/10/11 06:02:39;;;;;;;5.40;3.20;;;;;;;11.92;100.00;96760.81;5027113;28;20215;-81
2022/10/11 06:05:07;;;;;;;5.90;3.03;;;;;;;11.87;100.00;96760.69;5009696;28;20207;-81
2022/10/11 06:07:36;;;;;;;9.60;3.77;;;;;;;11.86;100.00;96756.31;5003757;28;20227;-81
2022/10/11 06:10:03;;;;;;;6.83;2.93;;;;;;;11.91;100.00;96769.97;5024953;28;20251;-82
2022/10/11 06:12:30;;;;;;;5.00;3.00;;;;;;;11.92;100.00;96768.94;5006773;28;20200;-81
2022/10/11 06:15:00;;;;;;;5.03;3.00;;;;;;;11.89;100.00;96761.28;5009453;28;20211;-81
2022/10/11 06:17:28;;;;;;;5.80;3.60;;;;;;;11.88;100.00;96754.22;5017029;28;20278;-81
2022/10/11 06:19:55;;;;;;;4.20;3.50;;;;;;;11.92;100.00;96757.28;5005167;28;20238;-81
2022/10/11 06:22:22;;;;;;;5.87;4.43;;;;;;;11.93;100.00;96767.03;5017927;28;20221;-81
2022/10/11 06:24:49;;;;;;;4.40;3.97;;;;;;;11.85;100.00;96754.66;5007908;28;20199;-81
2022/10/11 06:27:16;;;;;;;6.17;4.20;;;;;;;11.95;100.00;96773.06;5007222;28;20231;-81
2022/10/11 06:29:43;;;;;;;9.00;5.13;;;;;;;11.91;100.00;96772.69;5011308;28;20203;-81
2022/10/11 06:32:12;;;;;;;9.67;4.07;;;;;;;11.85;100.00;96768.19;5012305;28;20206;-81
2022/10/11 06:34:39;;;;;;;8.40;6.20;;;;;;;11.91;100.00;96771.88;5011642;28;20289;-82
2022/10/11 06:37:06;;;;;;;10.93;4.77;;;;;;;11.88;100.00;96762.34;5004101;28;20190;-81
2022/10/11 06:39:34;;;;;;;8.00;6.00;;;;;;;11.97;100.00;96769.09;5022505;28;20207;-81
2022/10/11 06:42:01;;;;;;;8.67;3.10;;;;;;;11.93;100.00;96762.47;5014052;28;20212;-81
2022/10/11 06:44:28;;;;;;;4.50;2.53;;;;;;;12.00;100.00;96774.03;5012731;28;20199;-81
2022/10/11 06:46:55;;;;;;;5.23;2.90;;;;;;;12.03;100.00;96779.00;5005669;28;20334;-81
2022/10/11 06:49:23;;;;;;;6.27;3.17;;;;;;;12.02;100.00;96777.34;5012920;28;20211;-81
2022/10/11 06:51:50;;;;;;;6.83;3.80;;;;;;;12.02;100.00;96777.34;5010058;28;20830;-81
2022/10/11 06:54:18;;;;;;;4.43;3.90;;;;;;;12.09;100.00;96785.34;5008987;28;20218;-81
2022/10/11 06:56:45;;;;;;;4.80;4.30;;;;;;;12.09;100.00;96777.22;5014963;28;20214;-82
2022/10/11 06:59:13;;;;;;;9.40;4.80;;;;;;;12.14;100.00;96780.09;5031439;28;20218;-81
2022/10/11 07:01:41;;;;;;;5.50;4.70;;;;;;;12.19;100.00;96782.09;5013777;28;20227;-81
2022/10/11 07:04:08;;;;;;;10.10;6.07;;;;;;;12.26;100.00;96796.38;5030462;28;20214;-81
2022/10/11 07:06:40;;;;;;;8.30;5.60;;;;;;;12.28;100.00;96792.38;5012220;28;20190;-81
2022/10/11 07:09:09;;;;;;;7.60;6.43;;;;;;;12.28;100.00;96791.56;5001779;28;20281;-81
2022/10/11 07:11:36;;;;;;;8.53;6.23;;;;;;;12.27;100.00;96790.72;5010868;28;20242;-81
2022/10/11 07:14:06;;;;;;;12.07;5.97;;;;;;;12.34;100.00;96796.03;5027869;28;20306;-81
2022/10/11 07:16:35;;;;;;;8.00;6.10;;;;;;;12.39;100.00;96804.31;5005409;28;20209;-81
2022/10/11 07:19:03;;;;;;;14.13;6.00;;;;;;;12.41;100.00;96807.63;5011401;28;20280;-81
2022/10/11 07:21:32;;;;;;;11.13;5.53;;;;;;;12.41;100.00;96811.16;5009300;28;20217;-81
2022/10/11 07:24:01;;;;;;;7.80;5.83;;;;;;;12.41;100.00;96804.91;5010494;28;20203;-81
2022/10/11 07:26:29;;;;;;;8.77;5.47;;;;;;;12.46;100.00;96811.28;5010575;28;20199;-82
2022/10/11 07:28:56;;;;;;;9.20;4.80;;;;;;;12.44;100.00;96812.56;5009696;28;20222;-80
2022/10/11 07:31:26;;;;;;;8.67;3.43;;;;;;;12.44;100.00;96817.97;5025125;28;20237;-81
2022/10/11 07:33:55;;;;;;;8.57;4.77;;;;;;;12.39;100.00;96810.56;5013683;28;20199;-81
2022/10/11 07:36:23;;;;;;;7.20;4.77;;;;;;;12.46;100.00;96824.00;5001894;28;20203;-81
2022/10/11 07:38:50;;;;;;;4.90;4.10;;;;;;;12.41;100.00;96813.03;5012540;28;20203;-81
2022/10/11 07:41:19;;;;;;;5.60;3.90;;;;;;;12.36;100.00;96800.19;5031522;28;20209;-82
2022/10/11 07:43:48;;;;;;;4.93;3.43;;;;;;;12.45;100.00;96817.75;5005387;28;20309;-81
2022/10/11 07:46:16;;;;;;;4.40;3.40;;;;;;;12.40;100.00;96816.81;5009177;28;20206;-81
2022/10/11 07:48:46;;;;;;;6.30;3.43;;;;;;;12.46;100.00;96829.41;5014498;28;20222;-82
2022/10/11 07:51:15;;;;;;;8.50;3.87;;;;;;;12.45;100.00;96825.06;5027001;28;20287;-81
2022/10/11 07:53:44;;;;;;;9.10;3.80;;;;;;;12.44;100.00;96823.41;5009285;28;20210;-81
2022/10/11 07:56:13;;;;;;;7.40;3.07;;;;;;;12.43;100.00;96819.03;5022478;28;20222;-80
2022/10/11 07:58:42;;;;;;;5.27;3.10;;;;;;;12.44;100.00;96821.53;5008164;28;20231;-81
2022/10/11 08:01:10;;;;;;;9.30;3.23;;;;;;;12.49;100.00;96820.84;5029537;28;20218;-81
2022/10/11 08:03:40;;;;;;;13.47;3.23;;;;;;;12.52;100.00;96828.50;5010290;28;20221;-81
2022/10/11 08:06:09;;;;;;;8.00;2.87;;;;;;;12.50;100.00;96817.09;5026699;28;20195;-81
2022/10/11 08:09:02;;;;;;;9.33;2.33;;;;;;;12.65;100.00;96825.59;5030830;28;20249;-81
2022/10/11 08:11:54;;;;;;;1.87;1.73;;;;;;;12.70;100.00;96827.59;5029369;28;20322;-84
2022/10/11 08:14:23;;;;;;;3.33;1.90;;;;;;;12.69;100.00;96826.78;5010630;28;20211;-82
2022/10/11 08:16:50;;;;;;;3.10;1.80;;;;;;;12.68;100.00;96818.88;5010093;28;20205;-81
2022/10/11 08:19:18;;;;;;;4.63;2.00;;;;;;;12.76;100.00;96822.06;5012253;28;20231;-81
2022/10/11 08:21:45;;;;;;;4.87;2.40;;;;;;;12.85;100.00;96822.56;5012024;28;20214;-81
2022/10/11 08:24:13;;;;;;;4.90;2.50;;;;;;;12.96;100.00;96831.78;5008491;28;20210;-81
2022/10/11 08:26:41;;;;;;;6.17;2.57;;;;;;;12.99;100.00;96831.31;5022989;28;20203;-81
2022/10/11 08:29:08;;;;;;;5.20;2.30;;;;;;;13.04;100.00;96820.59;5013461;28;20227;-81
2022/10/11 08:31:37;;;;;;;4.13;2.40;;;;;;;13.07;100.00;96830.97;5006191;28;20202;-82
2022/10/11 08:34:05;;;;;;;2.70;2.20;;;;;;;13.13;100.00;96825.47;5008237;28;20285;-81
2022/10/11 08:36:32;;;;;;;4.37;2.57;;;;;;;13.13;100.00;96824.59;5007279;28;20195;-81
2022/10/11 08:39:00;;;;;;;7.03;2.83;;;;;;;13.18;100.00;96827.50;5010023;28;20210;-82
2022/10/11 08:41:31;;;;;;;7.70;2.37;;;;;;;13.25;100.00;96837.16;5030040;28;20278;-81
2022/10/11 08:44:13;;;;;;;3.10;2.30;;;;;;;13.32;100.00;96831.63;5010202;28;20272;-81
2022/10/11 08:46:46;;;;;;;5.17;2.93;;;;;;;13.39;100.00;96835.03;5020679;28;20208;-81
2022/10/11 08:49:19;;;;;;;8.37;2.90;;;;;;;13.45;100.00;96834.06;5014020;28;20225;-81
2022/10/11 08:51:50;;;;;;;2.20;2.00;;;;;;;13.51;100.00;96825.00;5015343;28;20206;-81
2022/10/11 08:54:23;;;;;;;4.60;2.30;;;;;;;13.57;100.00;96825.94;5008226;28;20328;-81
2022/10/11 08:56:50;;;;;;;5.17;2.23;;;;;;;13.59;100.00;96826.53;5028273;28;20274;-82
2022/10/11 08:59:30;;;;;;;4.97;2.17;;;;;;;13.63;100.00;96827.69;5009489;28;20504;-81
2022/10/11 09:02:12;;;;;;;4.70;2.20;;;;;;;13.67;100.00;96825.34;5013738;28;20229;-81
2022/10/11 09:04:43;;;;;;;2.83;2.10;;;;;;;13.70;100.00;96822.97;5004650;28;20229;-81
2022/10/11 09:07:23;;;;;;;4.97;2.60;;;;;;;13.75;100.00;96831.22;5011425;28;20238;-81
2022/10/11 09:10:08;;;;;;;6.70;2.43;;;;;;;13.83;100.00;96827.31;5010291;28;20218;-81
2022/10/11 09:12:47;;;;;;;7.07;2.70;;;;;;;13.89;100.00;96826.34;5006863;28;20214;-81
2022/10/11 09:15:27;;;;;;;5.73;3.97;;;;;;;13.98;100.00;96825.75;5007904;28;20211;-81
2022/10/11 09:18:20;;;;;;;4.60;2.57;;;;;;;14.07;100.00;96828.91;5025064;28;20244;-80
2022/10/11 09:21:07;;;;;;;7.17;3.20;;;;;;;14.21;100.00;96824.84;5011445;28;20306;-81
2022/10/11 09:23:46;;;;;;;4.80;2.83;;;;;;;14.29;100.00;96829.09;5025365;28;20234;-81
2022/10/11 09:26:23;;;;;;;6.57;2.73;;;;;;;14.30;100.00;96817.13;5027386;28;20198;-81
2022/10/11 09:29:00;;;;;;;6.43;3.77;;;;;;;14.39;100.00;96819.25;5006664;28;20226;-81
2022/10/11 09:31:28;;;;;;;4.57;3.00;;;;;;;14.47;100.00;96811.78;5018023;28;20348;-81
2022/10/11 09:34:01;;;;;;;5.53;3.10;;;;;;;14.61;100.00;96834.88;5008962;28;20203;-81
2022/10/11 09:36:35;;;;;;;6.93;3.07;;;;;;;14.58;100.00;96819.06;5012362;28;20305;-81
2022/10/11 09:39:11;;;;;;;5.57;3.30;;;;;;;14.68;100.00;96814.63;5009286;28;20257;-81
2022/10/11 09:41:48;;;;;;;5.70;3.27;;;;;;;14.76;100.00;96816.97;5027519;28;20203;-81
2022/10/11 09:44:22;;;;;;;8.33;4.03;;;;;;;14.86;100.00;96826.38;5005452;28;20289;-81
2022/10/11 09:46:51;;;;;;;5.87;3.50;;;;;;;14.91;100.00;96821.81;5008740;28;20261;-81
2022/10/11 09:49:24;;;;;;;3.00;2.50;;;;;;;15.00;100.00;96820.34;5028745;28;20222;-81
2022/10/11 09:51:54;;;;;;;5.13;2.73;;;;;;;15.00;100.00;96801.31;5022780;28;20294;-81
2022/10/11 09:54:37;;;;;;;4.37;2.70;;;;;;;15.25;100.00;96819.94;5007974;28;20294;-81
2022/10/11 09:57:05;;;;;;;6.70;2.50;;;;;;;15.40;100.00;96812.00;5007619;28;20260;-80
2022/10/11 09:59:33;;;;;;;4.60;2.53;;;;;;;15.58;100.00;96813.66;5026688;28;20200;-81
2022/10/11 10:02:21;;;;;;;3.23;2.40;;;;;;;15.71;100.00;96817.94;5008836;28;20230;-81
2022/10/11 10:05:00;;;;;;;8.50;3.53;;;;;;;15.81;100.00;96818.91;5031817;28;20206;-81
2022/10/11 10:07:28;;;;;;;5.73;2.37;;;;;;;15.94;100.00;96811.41;5023218;28;20257;-81
2022/10/11 10:09:56;;;;;;;5.40;2.30;;;;;;;16.16;100.00;96815.00;5027254;28;20230;-81
2022/10/11 10:12:26;;;;;;;3.70;2.50;;;;;;;16.30;100.00;96812.69;5030340;28;20252;-81
2022/10/11 10:15:06;;;;;;;4.43;2.80;;;;;;;16.50;100.00;96811.00;5029147;28;20204;-81
2022/10/11 10:17:35;;;;;;;15.17;3.47;;;;;;;16.60;100.00;96799.38;5012966;28;20198;-81
2022/10/11 10:20:05;;;;;;;3.30;2.20;;;;;;;16.69;100.00;96805.22;5021690;28;20227;-81
2022/10/11 10:22:36;;;;;;;4.33;2.40;;;;;;;16.91;100.00;96804.09;5030218;28;20187;-81
2022/10/11 10:25:08;;;;;;;4.93;2.33;;;;;;;17.09;100.00;96797.41;5015264;28;20217;-81
2022/10/11 10:27:35;;;;;;;3.23;2.40;;;;;;;17.32;100.00;96794.31;5012664;28;20242;-81
2022/10/11 10:30:15;;;;;;;5.67;2.13;;;;;;;17.50;100.00;96787.63;5020375;28;20233;-82
2022/10/11 10:32:52;;;;;;;3.53;2.10;;;;;;;17.57;97.62;96787.38;5030334;28;20261;-82
2022/10/11 10:35:29;;;;;;;5.17;2.50;;;;;;;17.69;98.51;96790.78;5027713;28;20206;-81
2022/10/11 10:38:07;;;;;;;5.50;2.67;;;;;;;17.90;98.79;96783.47;5008962;28;20203;-81
2022/10/11 10:40:41;;;;;;;3.67;2.20;;;;;;;18.17;96.53;96786.06;5016969;28;20217;-81
2022/10/11 10:43:18;;;;;;;2.83;2.07;;;;;;;18.31;95.82;96781.72;5028645;28;20203;-81
2022/10/11 10:46:05;;;;;;;2.77;2.23;;;;;;;18.46;96.65;96774.38;5012768;28;20210;-82
2022/10/11 10:48:40;;;;;;;6.50;2.80;;;;;;;18.65;98.96;96782.94;5010783;28;20219;-82
2022/10/11 10:51:18;;;;;;;8.50;2.55;;;;;;;18.80;95.28;96779.41;5010756;28;20293;-82
2022/10/11 10:53:51;;;;;;;6.28;2.92;;;;;;;19.01;95.72;96781.06;5011333;28;20207;-82
2022/10/11 10:56:26;;;;;;;6.68;2.58;;;;;;;19.17;95.07;96776.41;5012715;28;20226;-82
2022/10/11 10:59:04;;;;;;;2.95;2.60;;;;;;;19.46;92.90;96768.44;5003120;28;20207;-82
2022/10/11 11:01:33;;;;;;;4.95;2.58;;;;;;;19.42;92.68;96773.66;5010819;28;20211;-82
2022/10/11 11:04:09;;;;;;;5.82;2.35;;;;;;;19.43;92.84;96767.06;5005945;28;20210;-82
2022/10/11 11:06:49;;;;;;;7.15;3.25;;;;;;;19.60;91.94;96766.81;5014825;28;20215;-82
2022/10/11 11:09:34;;;;;;;5.28;2.42;;;;;;;19.80;90.16;96769.50;5011323;28;20261;-79
2022/10/11 11:12:15;;;;;;;4.47;2.47;;;;;;;19.87;89.87;96755.50;5009276;28;20234;-79
2022/10/11 11:14:52;;;;;;;3.08;2.08;;;;;;;20.07;88.13;96766.41;5010424;28;20210;-80
2022/10/11 11:17:29;;;;;;;5.13;3.05;;;;;;;20.16;88.42;96759.19;5029304;28;20195;-80
2022/10/11 11:20:09;;;;;;;3.00;2.35;;;;;;;20.34;86.45;96760.53;5012568;28;20241;-81
2022/10/11 11:22:45;;;;;;;3.72;2.33;;;;;;;20.43;85.81;96752.53;5031025;28;20226;-81
2022/10/11 11:25:27;;;;;;;2.67;2.40;;;;;;;20.34;85.34;96739.41;5012202;28;20253;-81
2022/10/11 11:28:13;;;;;;;2.10;1.90;;;;;;;20.06;86.90;96740.09;5028413;28;20210;-81
2022/10/11 11:30:52;;;;;;;4.07;2.25;;;;;;;20.06;87.27;96745.56;5011670;28;20210;-80
2022/10/11 11:33:30;;;;;;;2.42;2.03;;;;;;;20.24;89.79;96739.44;5011249;28;20226;-80
2022/10/11 11:36:03;;;;;;;2.95;2.20;;;;;;;20.46;86.82;96743.75;5032884;28;20372;-81
2022/10/11 11:38:43;;;;;;;2.92;2.00;;;;;;;20.55;84.14;96734.63;5010985;28;20320;-82
2022/10/11 11:41:16;;;;;;;3.00;2.30;;;;;;;20.48;82.78;96733.31;5009628;28;20234;-81
2022/10/11 11:43:57;;;;;;;3.42;2.17;;;;;;;20.28;84.90;96732.28;5008607;28;20256;-82
2022/10/11 11:46:29;;;;;;;5.03;2.13;;;;;;;20.37;85.31;96727.06;5027262;28;20214;-82